Energy Century — MBEF7 — position and weather

sailwx.info

Track history (hours):
 
Tides and Currents Weather Stations Pressure Air Temp Water Temp Dewpoint Dewpoint Depression Visibility Wind Speed Wind Dir Waves Ship Positions

Energy Century

Last reported at 2017-Oct-29 23:19 UTC. Time now 2017-Nov-18 21:51 UTC.
Position N 17°24' W 060°57'.
Warning: this ship's position is 19 days out of date.

Length 228 m; draft 13.7 m.

Type: Ship (hazmat cat D). MMSI: 235733000.

Date/timePositionNaut miles runAvg speedWind from/ knotsBaromVisibWave heightAir tempDewpointWater temp
2017-Oct-29 23:19N 17°24' W 060°57'413.1
2017-Oct-29 23:00N 17°26' W 061°01'613.1
2017-Oct-29 22:30N 17°30' W 061°07'713.1
2017-Oct-29 22:00N 17°33' W 061°12'713.1
2017-Oct-29 21:30N 17°37' W 061°18'713.1
2017-Oct-29 21:00N 17°41' W 061°24'612.9
2017-Oct-29 20:30N 17°44' W 061°29'612.8
2017-Oct-29 20:00N 17°48' W 061°35'612.8
2017-Oct-29 19:30N 17°52' W 061°40'1212.4
2017-Oct-29 18:32N 17°58' W 061°51'112.4
2017-Oct-29 18:29N 17°59' W 061°52'612.8
2017-Oct-29 17:59N 18°02' W 061°57'712.9
2017-Oct-29 17:29N 18°06' W 062°03'5713.0
2017-Oct-29 13:06N 18°36' W 062°54'  
Track history (hours):
 
Tides and Currents Weather Stations Pressure Air Temp Water Temp Dewpoint Dewpoint Depression Visibility Wind Speed Wind Dir Waves Ship Positions

Energy Century

Last reported at 2017-Oct-29 23:19 UTC. Time now 2017-Nov-18 21:51 UTC.
Position N 17°24' W 060°57'.
Warning: this ship's position is 19 days out of date.

Length 228 m; draft 13.7 m.

Type: Ship (hazmat cat D). MMSI: 235733000.

Date/timePositionNaut miles runAvg speedWind from/ knotsBaromVisibWave heightAir tempDewpointWater temp
2017-Oct-29 23:19N 17°24' W 060°57'413.1
2017-Oct-29 23:00N 17°26' W 061°01'613.1
2017-Oct-29 22:30N 17°30' W 061°07'713.1
2017-Oct-29 22:00N 17°33' W 061°12'713.1
2017-Oct-29 21:30N 17°37' W 061°18'713.1
2017-Oct-29 21:00N 17°41' W 061°24'612.9
2017-Oct-29 20:30N 17°44' W 061°29'612.8
2017-Oct-29 20:00N 17°48' W 061°35'612.8
2017-Oct-29 19:30N 17°52' W 061°40'1212.4
2017-Oct-29 18:32N 17°58' W 061°51'112.4
2017-Oct-29 18:29N 17°59' W 061°52'612.8
2017-Oct-29 17:59N 18°02' W 061°57'712.9
2017-Oct-29 17:29N 18°06' W 062°03'5713.0
2017-Oct-29 13:06N 18°36' W 062°54'  

Dump ship's entire track history